createdAt,value
2023-03-26T00:03:57.459Z,93.47
2023-03-26T00:09:00.408Z,93.48
2023-03-26T00:14:03.774Z,93.30
2023-03-26T00:19:06.372Z,93.10
2023-03-26T00:24:14.894Z,93.10
2023-03-26T00:29:18.585Z,93.16
2023-03-26T00:34:22.892Z,93.08
2023-03-26T00:39:25.417Z,92.93
2023-03-26T00:44:27.861Z,92.88
2023-03-26T00:49:31.883Z,92.63
2023-03-26T00:54:35.151Z,92.58
2023-03-26T00:59:38.133Z,92.68
2023-03-26T01:04:48.388Z,92.79
2023-03-26T01:09:51.491Z,92.76
2023-03-26T01:15:00.590Z,92.73
2023-03-26T01:20:08.199Z,92.92
2023-03-26T01:25:10.986Z,93.00
2023-03-26T01:30:17.941Z,93.00
2023-03-26T01:35:40.732Z,93.05
2023-03-26T01:40:58.001Z,93.19
2023-03-26T01:46:05.233Z,93.30
2023-03-26T01:51:09.111Z,93.50
2023-03-26T01:56:35.367Z,93.59
2023-03-26T02:01:47.332Z,93.62
2023-03-26T02:07:14.855Z,93.67
2023-03-26T02:12:19.763Z,93.67
2023-03-26T02:17:24.168Z,93.60
2023-03-26T02:22:29.708Z,93.70
2023-03-26T02:27:33.809Z,93.65
2023-03-26T02:32:36.365Z,93.74
2023-03-26T02:37:39.721Z,93.86
2023-03-26T02:42:42.210Z,93.65
2023-03-26T02:47:45.884Z,93.82
2023-03-26T02:52:49.796Z,94.23
2023-03-26T02:57:52.275Z,94.29
2023-03-26T03:02:57.740Z,94.83
2023-03-26T03:08:00.437Z,95.29
2023-03-26T03:13:05.746Z,95.73
2023-03-26T03:18:08.464Z,96.13
2023-03-26T03:23:11.470Z,96.76
2023-03-26T03:28:14.070Z,96.93
2023-03-26T03:33:19.157Z,97.09
2023-03-26T03:38:21.807Z,97.74
2023-03-26T03:43:24.302Z,97.53
2023-03-26T03:48:27.929Z,97.55
2023-03-26T03:53:30.512Z,97.60
2023-03-26T03:58:34.491Z,97.75
2023-03-26T04:03:39.098Z,97.84
2023-03-26T04:08:41.880Z,97.79
2023-03-26T04:13:44.719Z,98.04
2023-03-26T04:18:47.373Z,98.29
2023-03-26T04:23:49.905Z,98.76
2023-03-26T04:28:56.363Z,98.90
2023-03-26T04:34:14.205Z,99.19
2023-03-26T04:39:17.540Z,99.15
2023-03-26T04:44:22.545Z,99.22
2023-03-26T04:49:25.300Z,99.25
2023-03-26T04:54:27.895Z,99.25
2023-03-26T04:59:34.935Z,99.19
2023-03-26T05:04:40.840Z,99.08
2023-03-26T05:09:43.500Z,98.93
2023-03-26T05:14:46.097Z,98.99
2023-03-26T05:19:48.736Z,99.14
2023-03-26T05:24:51.500Z,99.20
2023-03-26T05:30:00.989Z,98.89
2023-03-26T05:35:04.224Z,98.91
2023-03-26T05:40:12.204Z,98.39
2023-03-26T05:45:15.590Z,97.96
2023-03-26T05:50:18.240Z,97.32
2023-03-26T05:55:21.912Z,96.04
2023-03-26T06:00:24.988Z,95.14
2023-03-26T06:05:32.444Z,94.17
2023-03-26T06:10:38.756Z,93.43
2023-03-26T06:15:41.317Z,92.48
2023-03-26T06:20:44.382Z,91.75
2023-03-26T06:25:47.716Z,91.10
2023-03-26T06:30:51.592Z,89.41
2023-03-26T06:35:54.529Z,88.30
2023-03-26T06:41:13.079Z,87.08
2023-03-26T06:46:16.383Z,85.22
2023-03-26T06:51:18.925Z,85.55
2023-03-26T06:56:21.438Z,85.29
2023-03-26T07:01:24.000Z,84.54
2023-03-26T07:06:27.735Z,85.06
2023-03-26T07:11:30.574Z,84.82
2023-03-26T07:16:33.130Z,85.07
2023-03-26T07:21:36.430Z,84.29
2023-03-26T07:26:47.896Z,84.36
2023-03-26T07:32:03.744Z,84.68
2023-03-26T07:37:28.401Z,85.23
2023-03-26T07:42:41.029Z,84.95
2023-03-26T07:47:45.242Z,83.13
2023-03-26T07:52:48.254Z,82.61
2023-03-26T07:58:20.703Z,80.84
2023-03-26T08:03:59.444Z,80.36
2023-03-26T08:09:37.880Z,80.16
2023-03-26T08:14:41.026Z,79.46
2023-03-26T08:19:44.718Z,78.27
2023-03-26T08:25:17.772Z,76.58
2023-03-26T08:30:23.006Z,74.94
2023-03-26T08:35:27.454Z,73.45
2023-03-26T08:41:02.033Z,74.10
2023-03-26T08:46:07.335Z,74.59
2023-03-26T08:51:28.296Z,75.57
2023-03-26T08:56:51.387Z,76.04
2023-03-26T09:02:01.217Z,76.98
2023-03-26T09:07:20.556Z,76.14
2023-03-26T09:12:26.191Z,73.91
2023-03-26T09:18:00.879Z,72.34
2023-03-26T09:23:10.904Z,73.67
2023-03-26T09:28:29.361Z,75.94
2023-03-26T09:33:55.813Z,76.29
2023-03-26T09:39:14.256Z,77.84
2023-03-26T09:44:39.154Z,79.86
2023-03-26T09:49:49.050Z,80.69
2023-03-26T09:55:23.453Z,80.25
2023-03-26T10:00:47.771Z,79.68
2023-03-26T10:06:06.873Z,76.08
2023-03-26T10:11:28.307Z,75.41
2023-03-26T10:16:56.649Z,74.97
2023-03-26T10:22:32.324Z,74.31
2023-03-26T10:27:51.037Z,74.59
2023-03-26T10:33:14.446Z,73.99
2023-03-26T10:38:32.885Z,72.41
2023-03-26T10:44:09.560Z,72.70
2023-03-26T10:49:26.086Z,72.22
2023-03-26T10:54:59.748Z,72.19
2023-03-26T11:00:13.126Z,71.83
2023-03-26T11:05:41.911Z,70.29
2023-03-26T11:10:50.859Z,69.84
2023-03-26T11:16:02.713Z,71.31
2023-03-26T11:21:18.993Z,71.89
2023-03-26T11:26:28.282Z,69.92
2023-03-26T11:31:33.903Z,69.28
2023-03-26T11:36:43.779Z,69.34
2023-03-26T11:41:48.478Z,69.85
2023-03-26T11:46:58.913Z,70.38
2023-03-26T11:52:02.752Z,70.89
2023-03-26T11:57:16.003Z,69.92
2023-03-26T12:02:38.569Z,68.85
2023-03-26T12:08:01.062Z,66.25
2023-03-26T12:13:22.661Z,66.45
2023-03-26T12:18:27.736Z,67.33
2023-03-26T12:24:02.463Z,69.75
2023-03-26T12:29:11.185Z,73.19
2023-03-26T12:34:17.624Z,75.79
2023-03-26T12:40:06.516Z,77.30
2023-03-26T12:44:59.937Z,77.39
2023-03-26T12:50:03.732Z,76.54
2023-03-26T12:55:12.313Z,76.13
2023-03-26T13:00:30.137Z,75.96
2023-03-26T13:06:11.813Z,76.03
2023-03-26T13:11:27.930Z,76.42
2023-03-26T13:16:46.613Z,75.95
2023-03-26T13:21:56.586Z,74.67
2023-03-26T13:27:26.302Z,74.31
2023-03-26T13:32:46.752Z,74.65
2023-03-26T13:37:55.945Z,73.49
2023-03-26T13:43:30.268Z,74.54
2023-03-26T13:48:56.015Z,74.26
2023-03-26T13:54:17.499Z,73.43
2023-03-26T13:59:39.574Z,73.14
2023-03-26T14:04:52.388Z,73.14
2023-03-26T14:10:06.044Z,73.23
2023-03-26T14:15:16.288Z,72.26
2023-03-26T14:20:49.717Z,71.52
2023-03-26T14:26:25.003Z,71.33
2023-03-26T14:31:36.023Z,71.10
2023-03-26T14:36:59.091Z,70.74
2023-03-26T14:42:19.743Z,71.48
2023-03-26T14:47:24.484Z,71.69
2023-03-26T14:52:39.395Z,71.47
2023-03-26T14:58:14.354Z,71.60
2023-03-26T15:03:39.865Z,70.95
2023-03-26T15:09:13.748Z,70.25
2023-03-26T15:14:49.349Z,70.27
2023-03-26T15:20:11.616Z,70.19
2023-03-26T15:25:38.567Z,70.95
2023-03-26T15:31:06.519Z,71.65
2023-03-26T15:36:53.058Z,71.61
2023-03-26T15:42:01.813Z,71.50
2023-03-26T15:47:31.379Z,71.75
2023-03-26T15:52:37.062Z,72.12
2023-03-26T15:58:02.587Z,72.03
2023-03-26T16:03:11.086Z,72.95
2023-03-26T16:08:23.250Z,73.53
2023-03-26T16:13:31.310Z,73.69
2023-03-26T16:18:42.308Z,74.65
2023-03-26T16:23:47.676Z,75.69
2023-03-26T16:28:52.758Z,76.22
2023-03-26T16:34:14.200Z,76.78
2023-03-26T16:39:24.178Z,77.55
2023-03-26T16:44:42.708Z,78.17
2023-03-26T16:50:13.892Z,78.68
2023-03-26T16:55:20.074Z,78.99
2023-03-26T17:00:31.370Z,79.03
2023-03-26T17:05:39.958Z,79.47
2023-03-26T17:10:56.886Z,80.02
2023-03-26T17:16:18.752Z,80.35
2023-03-26T17:22:04.629Z,80.80
2023-03-26T17:27:24.107Z,81.43
2023-03-26T17:33:02.662Z,82.11
2023-03-26T17:38:28.109Z,82.88
2023-03-26T17:43:46.058Z,83.80
2023-03-26T17:48:58.514Z,84.46
2023-03-26T17:54:01.679Z,84.56
2023-03-26T17:59:11.264Z,84.71
2023-03-26T18:04:19.766Z,85.00
2023-03-26T18:09:45.632Z,84.98
2023-03-26T18:15:20.454Z,85.38
2023-03-26T18:20:27.409Z,86.05
2023-03-26T18:25:33.910Z,86.70
2023-03-26T18:30:46.867Z,87.18
2023-03-26T18:35:56.088Z,87.10
2023-03-26T18:40:58.900Z,87.08
2023-03-26T18:46:03.349Z,87.16
2023-03-26T18:51:10.134Z,87.57
2023-03-26T18:56:44.692Z,87.79
2023-03-26T19:01:48.789Z,87.73
2023-03-26T19:06:55.081Z,87.92
2023-03-26T19:12:06.667Z,88.59
2023-03-26T19:17:11.537Z,89.17
2023-03-26T19:22:14.308Z,88.99
2023-03-26T19:27:18.294Z,87.53
2023-03-26T19:32:32.388Z,86.73
2023-03-26T19:37:54.442Z,86.35
2023-03-26T19:42:58.007Z,85.71
2023-03-26T19:48:12.242Z,84.65
2023-03-26T19:53:31.381Z,83.81
2023-03-26T20:03:58.148Z,83.94
2023-03-26T20:09:01.115Z,84.19
2023-03-26T20:14:15.866Z,83.90
2023-03-26T20:19:19.097Z,83.60
2023-03-26T20:24:23.906Z,83.10
2023-03-26T20:29:28.590Z,83.25
2023-03-26T20:34:32.046Z,83.40
2023-03-26T20:39:34.640Z,83.24
2023-03-26T20:44:37.481Z,83.42
2023-03-26T20:49:40.283Z,83.15
2023-03-26T20:54:42.814Z,82.34
2023-03-26T20:59:45.583Z,81.93
2023-03-26T21:04:48.211Z,81.45
2023-03-26T21:09:51.146Z,80.87
2023-03-26T21:14:55.853Z,80.61
2023-03-26T21:20:07.735Z,80.35
2023-03-26T21:25:35.412Z,80.29
2023-03-26T21:30:38.233Z,80.14
2023-03-26T21:35:41.896Z,80.04
2023-03-26T21:40:52.969Z,79.36
2023-03-26T21:46:02.185Z,79.36
2023-03-26T21:51:05.818Z,79.61
2023-03-26T21:56:14.364Z,79.76
2023-03-26T22:01:45.451Z,79.62
2023-03-26T22:06:56.609Z,79.34
2023-03-26T22:11:59.088Z,79.27
2023-03-26T22:17:01.697Z,79.48
2023-03-26T22:22:04.270Z,79.66
2023-03-26T22:27:07.692Z,79.45
2023-03-26T22:32:10.449Z,79.55
2023-03-26T22:37:13.513Z,79.51
2023-03-26T22:42:15.976Z,79.67
2023-03-26T22:47:18.469Z,79.79
2023-03-26T22:52:21.116Z,79.82
2023-03-26T22:57:24.199Z,80.04
2023-03-26T23:02:27.087Z,80.20
2023-03-26T23:07:31.524Z,80.75
2023-03-26T23:12:34.032Z,80.71
2023-03-26T23:17:37.798Z,80.43
2023-03-26T23:22:42.435Z,80.75
2023-03-26T23:27:44.893Z,81.08
2023-03-26T23:32:47.539Z,81.37
2023-03-26T23:37:50.794Z,81.46
2023-03-26T23:42:53.271Z,81.72
2023-03-26T23:47:56.100Z,81.93
2023-03-26T23:52:58.941Z,82.10
2023-03-26T23:58:03.245Z,82.44
